createdAt,value
2023-12-02T00:00:04.543Z,974.99
2023-12-02T00:00:49.507Z,974.99
2023-12-02T00:01:34.693Z,974.99
2023-12-02T00:02:19.483Z,974.99
2023-12-02T00:03:04.737Z,974.99
2023-12-02T00:03:49.934Z,974.99
2023-12-02T00:04:36.872Z,974.99
2023-12-02T00:05:20.309Z,809.97
2023-12-02T00:06:05.358Z,809.97
2023-12-02T00:06:50.263Z,809.97
2023-12-02T00:07:35.346Z,809.97
2023-12-02T00:08:20.027Z,809.97
2023-12-02T00:09:05.012Z,809.97
2023-12-02T00:09:50.427Z,809.97
2023-12-02T00:10:35.304Z,809.97
2023-12-02T00:11:20.451Z,809.97
2023-12-02T00:12:05.223Z,809.97
2023-12-02T00:12:52.268Z,809.97
2023-12-02T00:13:35.501Z,756.42
2023-12-02T00:14:20.371Z,756.42
2023-12-02T00:15:05.755Z,756.42
2023-12-02T00:15:51.188Z,756.42
2023-12-02T00:16:37.659Z,756.42
2023-12-02T00:17:20.939Z,756.42
2023-12-02T00:18:05.708Z,756.42
2023-12-02T00:18:51.413Z,756.42
2023-12-02T00:19:36.325Z,756.42
2023-12-02T00:20:20.859Z,756.42
2023-12-02T00:21:06.121Z,756.42
2023-12-02T00:21:51.272Z,756.42
2023-12-02T00:22:36.013Z,756.42
2023-12-02T00:23:23.016Z,756.42
2023-12-02T00:24:06.002Z,756.42
2023-12-02T00:24:51.779Z,784.79
2023-12-02T00:25:38.167Z,784.79
2023-12-02T00:26:21.868Z,784.79
2023-12-02T00:27:06.352Z,784.79
2023-12-02T00:27:51.451Z,784.79
2023-12-02T00:28:36.305Z,784.79
2023-12-02T00:29:21.497Z,784.79
2023-12-02T00:30:06.374Z,784.79
2023-12-02T00:30:51.804Z,784.79
2023-12-02T00:31:36.979Z,784.79
2023-12-02T00:32:28.673Z,784.79
2023-12-02T00:33:07.078Z,784.79
2023-12-02T00:33:51.838Z,784.79
2023-12-02T00:34:36.677Z,784.79
2023-12-02T00:35:22.834Z,784.79
2023-12-02T00:36:07.261Z,784.79
2023-12-02T00:36:52.240Z,784.79
2023-12-02T00:37:40.363Z,784.79
2023-12-02T00:38:22.063Z,784.79
2023-12-02T00:39:07.467Z,784.79
2023-12-02T00:39:51.909Z,881.46
2023-12-02T00:40:37.035Z,816.56
2023-12-02T00:41:23.355Z,816.56
2023-12-02T00:42:07.853Z,816.56
2023-12-02T00:42:54.176Z,816.56
2023-12-02T00:43:37.361Z,816.56
2023-12-02T00:44:22.614Z,816.56
2023-12-02T00:45:08.270Z,816.56
2023-12-02T00:45:52.218Z,824.34
2023-12-02T00:46:37.856Z,824.34
2023-12-02T00:47:22.587Z,824.34
2023-12-02T00:48:08.949Z,824.34
2023-12-02T00:48:54.265Z,824.34
2023-12-02T00:49:39.041Z,824.34
2023-12-02T00:50:23.850Z,824.34
2023-12-02T00:51:08.896Z,824.34
2023-12-02T00:51:54.352Z,824.34
2023-12-02T00:52:39.080Z,824.34
2023-12-02T00:53:23.190Z,868.25
2023-12-02T00:54:07.828Z,924.18
2023-12-02T00:54:53.008Z,991.92
2023-12-02T00:55:38.294Z,985.40
2023-12-02T00:56:23.121Z,978.68
2023-12-02T00:57:08.201Z,963.38
2023-12-02T00:57:53.302Z,928.61
2023-12-02T00:58:41.451Z,977.84
2023-12-02T00:59:23.485Z,913.71
2023-12-02T01:00:08.849Z,970.02
2023-12-02T01:00:53.319Z,932.94
2023-12-02T01:01:38.639Z,895.03
2023-12-02T01:02:23.663Z,877.22
2023-12-02T01:03:11.114Z,877.22
2023-12-02T01:03:53.706Z,877.22
2023-12-02T01:04:39.359Z,836.41
2023-12-02T01:05:27.216Z,836.41
2023-12-02T01:06:10.484Z,836.41
2023-12-02T01:06:53.996Z,836.41
2023-12-02T01:07:38.813Z,967.53
2023-12-02T01:08:24.007Z,984.56
2023-12-02T01:09:08.888Z,982.04
2023-12-02T01:09:54.000Z,982.04
2023-12-02T01:10:39.487Z,974.16
2023-12-02T01:11:24.593Z,966.56
2023-12-02T01:12:09.683Z,923.39
2023-12-02T01:12:54.519Z,916.22
2023-12-02T01:13:39.241Z,952.64
2023-12-02T01:14:24.219Z,908.22
2023-12-02T01:15:09.421Z,917.82
2023-12-02T01:15:54.424Z,919.41
2023-12-02T01:16:39.472Z,921.80
2023-12-02T01:17:25.134Z,921.80
2023-12-02T01:18:09.493Z,917.63
2023-12-02T01:18:55.191Z,924.18
2023-12-02T01:19:40.097Z,866.01
2023-12-02T01:20:24.599Z,909.79
2023-12-02T01:21:09.858Z,887.53
2023-12-02T01:21:55.028Z,924.98
2023-12-02T01:22:40.205Z,924.98
2023-12-02T01:23:24.929Z,912.14
2023-12-02T01:24:10.070Z,862.27
2023-12-02T01:24:55.103Z,911.36
2023-12-02T01:25:40.311Z,917.63
2023-12-02T01:26:25.064Z,902.76
2023-12-02T01:27:10.036Z,910.57
2023-12-02T01:27:55.292Z,915.28
2023-12-02T01:28:40.491Z,840.74
2023-12-02T01:29:25.369Z,909.01
2023-12-02T01:30:10.474Z,903.52
2023-12-02T01:30:55.279Z,916.06
2023-12-02T01:31:40.363Z,863.77
2023-12-02T01:32:27.039Z,863.77
2023-12-02T01:33:10.741Z,863.77
2023-12-02T01:33:56.903Z,863.77
2023-12-02T01:34:40.567Z,863.77
2023-12-02T01:35:25.634Z,820.10
2023-12-02T01:36:10.956Z,898.12
2023-12-02T01:36:55.890Z,823.64
2023-12-02T01:37:40.913Z,898.12
2023-12-02T01:38:25.784Z,902.73
2023-12-02T01:39:10.958Z,907.44
2023-12-02T01:39:56.296Z,886.01
2023-12-02T01:40:41.312Z,942.00
2023-12-02T01:41:26.469Z,958.37
2023-12-02T01:42:11.380Z,922.59
2023-12-02T01:42:56.236Z,955.10
2023-12-02T01:43:41.197Z,958.37
2023-12-02T01:44:26.424Z,961.72
2023-12-02T01:45:11.287Z,975.32
2023-12-02T01:45:56.459Z,997.87
2023-12-02T01:46:41.411Z,981.72
2023-12-02T01:47:26.521Z,976.16
2023-12-02T01:48:11.631Z,991.00
2023-12-02T01:48:56.543Z,1009.33
2023-12-02T01:49:41.500Z,1032.71
2023-12-02T01:50:26.757Z,1033.05
2023-12-02T01:51:12.064Z,1042.87
2023-12-02T01:51:57.157Z,1015.40
2023-12-02T01:52:41.748Z,1011.93
2023-12-02T01:53:27.033Z,1035.36
2023-12-02T01:54:12.217Z,1061.62
2023-12-02T01:54:56.940Z,1006.72
2023-12-02T01:55:41.981Z,1075.34
2023-12-02T01:56:27.563Z,1078.00
2023-12-02T01:57:12.428Z,945.28
2023-12-02T01:57:57.084Z,991.07
2023-12-02T01:58:42.398Z,1038.19
2023-12-02T01:59:27.413Z,1005.86
2023-12-02T02:00:12.312Z,1049.90
2023-12-02T02:00:57.323Z,1051.01
2023-12-02T02:01:42.676Z,1033.05
2023-12-02T02:02:27.723Z,1041.08
2023-12-02T02:03:12.847Z,1091.86
2023-12-02T02:03:57.778Z,1048.10
2023-12-02T02:04:42.689Z,1051.70
2023-12-02T02:05:28.195Z,1051.70
2023-12-02T02:06:12.912Z,1048.10
2023-12-02T02:06:57.788Z,1027.40
2023-12-02T02:07:43.380Z,1030.05
2023-12-02T02:08:28.151Z,1003.25
2023-12-02T02:09:12.947Z,991.07
2023-12-02T02:09:58.066Z,1013.67
2023-12-02T02:10:42.912Z,1034.48
2023-12-02T02:11:28.377Z,1023.86
2023-12-02T02:12:13.353Z,924.98
2023-12-02T02:12:58.146Z,957.58
2023-12-02T02:13:43.170Z,985.12
2023-12-02T02:14:28.680Z,984.27
2023-12-02T02:15:13.283Z,938.73
2023-12-02T02:15:58.426Z,997.01
2023-12-02T02:16:43.147Z,958.41
2023-12-02T02:17:29.036Z,977.00
2023-12-02T02:18:13.653Z,914.63
2023-12-02T02:18:58.823Z,913.84
2023-12-02T02:19:43.801Z,902.73
2023-12-02T02:20:29.051Z,902.73
2023-12-02T02:21:14.129Z,902.73
2023-12-02T02:21:58.750Z,813.34
2023-12-02T02:22:43.486Z,820.55
2023-12-02T02:23:28.814Z,331.92
2023-12-02T02:24:14.061Z,985.40
2023-12-02T02:24:58.893Z,220.94
2023-12-02T02:25:44.003Z,542.35
2023-12-02T02:26:28.974Z,142.96
2023-12-02T02:27:13.981Z,176.96
2023-12-02T02:27:58.813Z,209.95
2023-12-02T02:28:44.559Z,310.92
2023-12-02T02:29:29.230Z,1100.25
2023-12-02T02:30:14.230Z,948.55
2023-12-02T02:30:59.132Z,914.63
2023-12-02T02:31:44.392Z,914.63
2023-12-02T02:32:29.484Z,914.63
2023-12-02T02:33:14.800Z,914.63
2023-12-02T02:33:59.921Z,914.63
2023-12-02T02:34:44.715Z,914.63
2023-12-02T02:35:29.474Z,876.50
2023-12-02T02:36:15.084Z,891.75
2023-12-02T02:36:59.449Z,888.86
2023-12-02T02:37:44.816Z,820.10
2023-12-02T02:38:29.646Z,880.36
2023-12-02T02:39:14.781Z,878.82
2023-12-02T02:39:59.758Z,885.77
2023-12-02T02:40:44.938Z,882.68
2023-12-02T02:41:29.844Z,868.54
2023-12-02T02:42:15.110Z,868.54
2023-12-02T02:43:00.220Z,868.54
2023-12-02T02:43:45.642Z,868.54
2023-12-02T02:44:30.230Z,868.54
2023-12-02T02:45:15.431Z,868.54
2023-12-02T02:46:00.974Z,868.54
2023-12-02T02:46:45.372Z,868.54
2023-12-02T02:47:30.497Z,868.54
2023-12-02T02:48:17.077Z,868.54
2023-12-02T02:49:01.065Z,868.54
2023-12-02T02:49:45.494Z,868.54
2023-12-02T02:50:30.173Z,788.30
2023-12-02T02:51:15.457Z,788.30
2023-12-02T02:52:00.618Z,788.30
2023-12-02T02:52:47.381Z,788.30
2023-12-02T02:53:30.495Z,919.07
2023-12-02T02:54:15.530Z,888.08
2023-12-02T02:55:00.670Z,885.77
2023-12-02T02:55:45.729Z,867.78
2023-12-02T02:56:31.114Z,867.78
2023-12-02T02:57:17.601Z,867.78
2023-12-02T02:58:01.191Z,867.78
2023-12-02T02:58:46.144Z,867.78
2023-12-02T02:59:31.184Z,867.78
2023-12-02T03:00:16.722Z,867.78
2023-12-02T03:01:01.303Z,867.78
2023-12-02T03:01:46.528Z,867.78
2023-12-02T03:02:31.373Z,867.78
2023-12-02T03:03:16.562Z,867.78
2023-12-02T03:04:01.119Z,867.78
2023-12-02T03:04:46.494Z,867.78
2023-12-02T03:05:31.580Z,867.78
2023-12-02T03:06:16.822Z,867.78
2023-12-02T03:07:01.784Z,867.78
2023-12-02T03:07:46.546Z,853.31
2023-12-02T03:08:31.652Z,872.34
2023-12-02T03:09:16.300Z,817.66
2023-12-02T03:10:01.687Z,829.20
2023-12-02T03:10:46.850Z,815.50
2023-12-02T03:11:32.132Z,827.04
2023-12-02T03:12:17.311Z,808.07
2023-12-02T03:13:03.653Z,808.07
2023-12-02T03:13:51.224Z,808.07
2023-12-02T03:14:32.638Z,808.07
2023-12-02T03:15:19.096Z,808.07
2023-12-02T03:16:02.509Z,808.07
2023-12-02T03:16:47.774Z,808.07
2023-12-02T03:17:32.177Z,808.07
2023-12-02T03:18:17.197Z,854.06
2023-12-02T03:19:02.425Z,854.06
2023-12-02T03:19:47.226Z,819.10
2023-12-02T03:20:32.247Z,718.54
2023-12-02T03:21:19.898Z,718.54
2023-12-02T03:22:02.571Z,718.54
2023-12-02T03:22:47.940Z,718.54
2023-12-02T03:23:32.843Z,718.54
2023-12-02T03:24:17.735Z,718.54
2023-12-02T03:25:02.984Z,718.54
2023-12-02T03:25:48.011Z,718.54
2023-12-02T03:26:34.454Z,718.54
2023-12-02T03:27:17.902Z,722.65
2023-12-02T03:28:03.769Z,722.65
2023-12-02T03:28:48.823Z,722.65
2023-12-02T03:29:34.758Z,722.65
2023-12-02T03:30:19.336Z,722.65
2023-12-02T03:31:03.584Z,722.65
2023-12-02T03:31:48.537Z,722.65
2023-12-02T03:32:34.626Z,722.65
2023-12-02T03:33:18.607Z,841.35
2023-12-02T03:34:03.719Z,819.10
2023-12-02T03:34:48.676Z,848.82
2023-12-02T03:35:33.621Z,873.10
2023-12-02T03:36:18.616Z,961.89
2023-12-02T03:37:03.588Z,961.89
2023-12-02T03:37:48.843Z,961.89
2023-12-02T03:38:33.604Z,840.61
2023-12-02T03:39:19.378Z,851.81
2023-12-02T03:40:05.238Z,861.70
2023-12-02T03:40:48.861Z,879.59
2023-12-02T03:41:33.934Z,873.41
2023-12-02T03:42:18.804Z,872.64
2023-12-02T03:43:03.833Z,907.47
2023-12-02T03:43:55.426Z,905.08
2023-12-02T03:44:34.030Z,901.10
2023-12-02T03:45:19.334Z,1177.27
2023-12-02T03:46:04.397Z,1170.49
2023-12-02T03:46:49.199Z,1092.80
2023-12-02T03:47:34.681Z,1105.15
2023-12-02T03:48:19.221Z,1110.99
2023-12-02T03:49:04.450Z,1089.04
2023-12-02T03:49:49.587Z,1087.17
2023-12-02T03:50:34.683Z,1020.32
2023-12-02T03:51:19.507Z,1037.39
2023-12-02T03:52:04.688Z,947.63
2023-12-02T03:52:49.737Z,922.36
2023-12-02T03:53:35.128Z,1007.93
2023-12-02T03:54:20.019Z,985.03
2023-12-02T03:55:04.734Z,1012.35
2023-12-02T03:55:49.978Z,898.71
2023-12-02T03:56:34.597Z,878.04
2023-12-02T03:57:19.870Z,863.98
2023-12-02T03:58:04.983Z,844.34
2023-12-02T03:58:51.072Z,844.34
2023-12-02T03:59:35.709Z,844.34
2023-12-02T04:00:20.719Z,844.34
2023-12-02T04:01:06.921Z,844.34
2023-12-02T04:01:50.427Z,844.34
2023-12-02T04:02:35.794Z,844.34
2023-12-02T04:03:22.197Z,844.34
2023-12-02T04:04:05.488Z,844.34
2023-12-02T04:04:52.183Z,844.34
2023-12-02T04:05:35.669Z,844.34
2023-12-02T04:06:20.688Z,1036.02
2023-12-02T04:07:05.881Z,871.87
2023-12-02T04:07:50.765Z,1006.16
2023-12-02T04:08:35.719Z,1056.69
2023-12-02T04:09:20.851Z,1040.11
2023-12-02T04:10:05.703Z,1031.95
2023-12-02T04:10:50.740Z,1069.74
2023-12-02T04:11:36.424Z,1071.61
2023-12-02T04:12:20.995Z,1052.48
2023-12-02T04:13:06.095Z,1073.47
2023-12-02T04:13:51.375Z,1081.55
2023-12-02T04:14:36.101Z,1078.73
2023-12-02T04:15:21.316Z,1029.19
2023-12-02T04:16:06.091Z,1079.83
2023-12-02T04:16:51.303Z,1025.59
2023-12-02T04:17:36.498Z,1017.66
2023-12-02T04:18:21.713Z,1047.38
2023-12-02T04:19:06.547Z,1034.59
2023-12-02T04:19:51.541Z,1002.38
2023-12-02T04:20:36.443Z,984.13
2023-12-02T04:21:21.655Z,986.70
2023-12-02T04:22:06.783Z,970.68
2023-12-02T04:22:51.634Z,1054.31
2023-12-02T04:23:36.717Z,1031.95
2023-12-02T04:24:22.087Z,1020.32
2023-12-02T04:25:07.603Z,1005.27
2023-12-02T04:25:51.931Z,1013.24
2023-12-02T04:26:37.092Z,968.99
2023-12-02T04:27:22.113Z,987.63
2023-12-02T04:28:07.083Z,979.82
2023-12-02T04:28:52.329Z,985.03
2023-12-02T04:29:37.052Z,1002.62
2023-12-02T04:30:22.314Z,994.57
2023-12-02T04:31:07.440Z,954.34
2023-12-02T04:31:52.099Z,943.43
2023-12-02T04:32:38.587Z,827.16
2023-12-02T04:33:22.188Z,827.16
2023-12-02T04:34:07.309Z,248.94
2023-12-02T04:34:52.584Z,306.88
2023-12-02T04:35:37.233Z,349.91
2023-12-02T04:36:22.200Z,467.88
2023-12-02T04:37:07.499Z,1064.10
2023-12-02T04:37:52.968Z,1064.10
2023-12-02T04:38:37.370Z,1054.74
2023-12-02T04:39:23.271Z,1054.74
2023-12-02T04:40:08.314Z,1054.74
2023-12-02T04:40:52.918Z,1054.74
2023-12-02T04:41:37.556Z,1209.70
2023-12-02T04:42:22.834Z,1173.43
2023-12-02T04:43:08.472Z,1173.43
2023-12-02T04:43:53.545Z,1173.43
2023-12-02T04:44:38.223Z,1173.43
2023-12-02T04:45:23.078Z,1217.69
2023-12-02T04:46:08.319Z,1198.70
2023-12-02T04:46:53.418Z,1198.70
2023-12-02T04:47:38.096Z,1002.75
2023-12-02T04:48:23.421Z,1002.75
2023-12-02T04:49:08.673Z,1002.75
2023-12-02T04:49:53.443Z,1111.72
2023-12-02T04:50:38.137Z,1203.70
2023-12-02T04:51:23.270Z,1223.69
2023-12-02T04:52:08.990Z,1223.69
2023-12-02T04:52:53.995Z,1223.69
2023-12-02T04:53:39.055Z,1147.91
2023-12-02T04:54:24.138Z,9.00
2023-12-02T04:55:08.763Z,48.99
2023-12-02T04:55:54.142Z,138.97
2023-12-02T04:56:39.517Z,138.97
2023-12-02T04:57:24.123Z,160.96
2023-12-02T04:58:09.434Z,160.96
2023-12-02T04:58:54.655Z,160.96
2023-12-02T04:59:39.437Z,160.96
2023-12-02T05:00:24.351Z,1020.18
2023-12-02T05:01:09.265Z,1050.10
2023-12-02T05:01:54.591Z,1025.59
2023-12-02T05:02:39.883Z,758.50
2023-12-02T05:03:24.449Z,1060.91
2023-12-02T05:04:09.580Z,1047.42
2023-12-02T05:04:54.685Z,1026.49
2023-12-02T05:05:39.677Z,1019.65
2023-12-02T05:06:24.876Z,1019.65
2023-12-02T05:07:09.499Z,1005.27
2023-12-02T05:07:54.908Z,860.18
2023-12-02T05:08:39.529Z,997.18
2023-12-02T05:09:24.676Z,969.84
2023-12-02T05:10:09.770Z,962.66
2023-12-02T05:10:55.106Z,983.15
2023-12-02T05:11:39.921Z,1002.69
2023-12-02T05:12:25.133Z,1014.12
2023-12-02T05:13:10.438Z,991.10
2023-12-02T05:13:54.966Z,399.84
2023-12-02T05:14:40.775Z,996.31
2023-12-02T05:15:25.761Z,970.39
2023-12-02T05:16:11.222Z,970.39
2023-12-02T05:16:55.340Z,998.91
2023-12-02T05:17:40.293Z,381.85
2023-12-02T05:18:26.099Z,381.85
2023-12-02T05:19:10.149Z,1002.69
2023-12-02T05:19:55.228Z,1018.38
2023-12-02T05:20:40.510Z,909.85
2023-12-02T05:21:25.907Z,1013.24
2023-12-02T05:22:10.584Z,831.50
2023-12-02T05:22:56.387Z,831.50
2023-12-02T05:23:40.844Z,1021.08
2023-12-02T05:24:25.858Z,483.81
2023-12-02T05:25:10.923Z,477.81
2023-12-02T05:25:55.521Z,1014.30
2023-12-02T05:26:40.891Z,1005.27
2023-12-02T05:27:26.571Z,1037.13
2023-12-02T05:28:10.938Z,405.84
2023-12-02T05:28:56.335Z,248.90
2023-12-02T05:29:41.603Z,244.90
2023-12-02T05:30:26.438Z,236.91
2023-12-02T05:31:11.094Z,290.89
2023-12-02T05:31:56.303Z,408.84
2023-12-02T05:32:41.294Z,587.77
2023-12-02T05:33:26.775Z,1031.89
2023-12-02T05:34:11.650Z,1036.39
2023-12-02T05:34:56.463Z,860.72
2023-12-02T05:35:41.604Z,192.95
2023-12-02T05:36:26.818Z,194.95
2023-12-02T05:37:11.839Z,134.97
2023-12-02T05:37:56.742Z,93.98
2023-12-02T05:38:41.580Z,62.98
2023-12-02T05:39:27.137Z,79.98
2023-12-02T05:40:11.598Z,59.98
2023-12-02T05:40:56.905Z,53.99
2023-12-02T05:41:41.888Z,55.99
2023-12-02T05:42:26.746Z,71.98
2023-12-02T05:43:11.904Z,67.98
2023-12-02T05:43:57.157Z,66.97
2023-12-02T05:44:42.126Z,59.98
2023-12-02T05:45:27.219Z,64.97
2023-12-02T05:46:12.324Z,58.98
2023-12-02T05:46:57.225Z,49.99
2023-12-02T05:47:42.321Z,67.98
2023-12-02T05:48:27.311Z,60.98
2023-12-02T05:49:12.280Z,63.98
2023-12-02T05:49:57.531Z,64.98
2023-12-02T05:50:42.171Z,85.98
2023-12-02T05:51:27.449Z,97.98
2023-12-02T05:52:12.744Z,50.99
2023-12-02T05:52:57.377Z,46.99
2023-12-02T05:53:42.563Z,58.99
2023-12-02T05:54:27.573Z,77.98
2023-12-02T05:55:12.820Z,56.99
2023-12-02T05:55:57.864Z,65.98
2023-12-02T05:56:43.060Z,60.98
2023-12-02T05:57:27.945Z,46.99
2023-12-02T05:58:13.000Z,56.99
2023-12-02T05:58:57.700Z,75.98
2023-12-02T05:59:43.005Z,50.99
2023-12-02T06:00:28.174Z,65.98
2023-12-02T06:01:12.897Z,59.98
2023-12-02T06:01:58.053Z,51.99
2023-12-02T06:02:43.373Z,44.99
2023-12-02T06:03:28.104Z,45.99
2023-12-02T06:04:13.464Z,47.99
2023-12-02T06:04:58.163Z,50.99
2023-12-02T06:05:43.289Z,49.99
2023-12-02T06:06:28.593Z,106.97
2023-12-02T06:07:13.220Z,49.99
2023-12-02T06:07:58.494Z,43.98
2023-12-02T06:08:43.287Z,67.98
2023-12-02T06:09:28.518Z,79.98
2023-12-02T06:10:13.327Z,38.98
2023-12-02T06:10:58.753Z,57.98
2023-12-02T06:11:43.627Z,40.98
2023-12-02T06:12:29.291Z,40.98
2023-12-02T06:13:13.783Z,26.99
2023-12-02T06:13:59.118Z,36.99
2023-12-02T06:14:43.741Z,29.99
2023-12-02T06:15:28.929Z,49.98
2023-12-02T06:16:13.700Z,73.97
2023-12-02T06:16:58.787Z,39.98
2023-12-02T06:17:44.557Z,111.96
2023-12-02T06:18:28.990Z,80.97
2023-12-02T06:19:14.311Z,107.96
2023-12-02T06:19:59.363Z,123.95
2023-12-02T06:20:44.211Z,179.93
2023-12-02T06:21:29.317Z,169.93
2023-12-02T06:22:14.177Z,106.96
2023-12-02T06:22:59.318Z,141.94
2023-12-02T06:23:44.439Z,218.91
2023-12-02T06:24:29.342Z,238.91
2023-12-02T06:25:14.424Z,188.93
2023-12-02T06:25:59.370Z,223.91
2023-12-02T06:26:44.461Z,126.95
2023-12-02T06:27:29.624Z,189.93
2023-12-02T06:28:14.301Z,213.92
2023-12-02T06:28:59.700Z,254.90
2023-12-02T06:29:44.759Z,272.89
2023-12-02T06:30:29.774Z,312.88
2023-12-02T06:31:15.174Z,303.88
2023-12-02T06:31:59.896Z,285.89
2023-12-02T06:32:45.141Z,318.87
2023-12-02T06:33:29.960Z,394.84
2023-12-02T06:34:15.088Z,394.84
2023-12-02T06:35:00.346Z,591.77
2023-12-02T06:35:45.842Z,591.77
2023-12-02T06:36:30.335Z,591.77
2023-12-02T06:37:15.136Z,64.97
2023-12-02T06:38:01.998Z,64.97
2023-12-02T06:38:45.495Z,64.97
2023-12-02T06:39:30.379Z,7.00
2023-12-02T06:40:15.154Z,18.00
2023-12-02T06:41:00.483Z,90.98
2023-12-02T06:41:45.200Z,41.99
2023-12-02T06:42:30.509Z,141.96
2023-12-02T06:43:15.323Z,72.98
2023-12-02T06:44:00.367Z,34.99
2023-12-02T06:44:46.521Z,26.99
2023-12-02T06:45:30.530Z,23.99
2023-12-02T06:46:15.603Z,127.97
2023-12-02T06:47:00.665Z,46.98
2023-12-02T06:47:45.920Z,206.92
2023-12-02T06:48:30.713Z,232.91
2023-12-02T06:49:16.242Z,198.92
2023-12-02T06:50:01.012Z,177.93
2023-12-02T06:50:46.074Z,80.97
2023-12-02T06:51:31.097Z,71.97
2023-12-02T06:52:16.111Z,42.98
2023-12-02T06:53:00.963Z,144.94
2023-12-02T06:53:46.022Z,226.91
2023-12-02T06:54:31.289Z,214.92
2023-12-02T06:56:02.927Z,214.92
2023-12-02T06:56:46.222Z,930.88
2023-12-02T06:57:31.477Z,974.68
2023-12-02T06:58:16.549Z,944.27
2023-12-02T06:59:01.637Z,951.82
2023-12-02T06:59:46.894Z,959.64
2023-12-02T07:00:31.789Z,959.64
2023-12-02T07:01:18.647Z,795.93
2023-12-02T07:02:02.294Z,795.93
2023-12-02T07:02:46.699Z,795.93
2023-12-02T07:03:32.049Z,795.93
2023-12-02T07:04:17.196Z,795.93
2023-12-02T07:05:02.220Z,795.93
2023-12-02T07:05:47.693Z,795.93
2023-12-02T07:06:32.859Z,795.93
2023-12-02T07:07:17.254Z,795.93
2023-12-02T07:08:01.881Z,344.83
2023-12-02T07:08:47.391Z,344.83
2023-12-02T07:09:32.602Z,344.83
2023-12-02T07:10:17.799Z,344.83
2023-12-02T07:11:02.418Z,850.30
2023-12-02T07:11:47.523Z,865.69
2023-12-02T07:12:33.741Z,865.69
2023-12-02T07:13:19.338Z,865.69
2023-12-02T07:14:04.733Z,865.69
2023-12-02T07:14:49.585Z,865.69
2023-12-02T07:15:32.724Z,867.05
2023-12-02T07:16:20.095Z,867.05
2023-12-02T07:17:04.529Z,867.05
2023-12-02T07:17:48.278Z,867.05
2023-12-02T07:18:33.135Z,867.05
2023-12-02T07:19:18.232Z,867.05
2023-12-02T07:20:03.991Z,867.05
2023-12-02T07:20:48.269Z,867.05
2023-12-02T07:21:33.387Z,867.05
2023-12-02T07:22:18.580Z,867.05
2023-12-02T07:23:03.315Z,867.05
2023-12-02T07:23:48.432Z,867.05
2023-12-02T07:24:33.093Z,841.35
2023-12-02T07:25:19.447Z,841.35
2023-12-02T07:26:04.402Z,841.35
2023-12-02T07:26:48.340Z,841.35
2023-12-02T07:27:33.741Z,841.35
2023-12-02T07:28:19.095Z,841.35
2023-12-02T07:29:05.700Z,841.35
2023-12-02T07:30:33.161Z,382.85
2023-12-02T07:31:18.053Z,176.93
2023-12-02T07:32:03.230Z,35.99
2023-12-02T07:32:48.433Z,36.99
2023-12-02T07:33:33.341Z,189.93
2023-12-02T07:34:18.589Z,516.80
2023-12-02T07:35:03.600Z,283.83
2023-12-02T07:35:48.614Z,344.86
2023-12-02T07:36:34.818Z,344.86
2023-12-02T07:37:19.032Z,344.86
2023-12-02T07:38:04.114Z,344.86
2023-12-02T07:38:48.935Z,344.86
2023-12-02T07:39:33.766Z,1210.41
2023-12-02T07:40:19.076Z,1210.41
2023-12-02T07:41:04.691Z,1210.41
2023-12-02T07:41:49.299Z,1210.41
2023-12-02T07:42:34.412Z,1129.56
2023-12-02T07:43:19.080Z,1136.55
2023-12-02T07:44:04.116Z,1212.52
2023-12-02T07:44:49.973Z,1212.52
2023-12-02T07:45:34.549Z,1212.52
2023-12-02T07:46:19.661Z,1212.52
2023-12-02T07:47:04.720Z,1212.52
2023-12-02T07:47:50.258Z,1212.52
2023-12-02T07:48:34.706Z,1212.52
2023-12-02T07:49:20.618Z,1212.52
2023-12-02T07:50:05.530Z,1212.52
2023-12-02T07:50:50.296Z,1212.52
2023-12-02T07:51:35.108Z,359.74
2023-12-02T07:52:20.082Z,26.99
2023-12-02T07:53:05.253Z,26.99
2023-12-02T07:53:50.229Z,26.99
2023-12-02T07:54:35.116Z,26.99
2023-12-02T07:55:20.622Z,26.99
2023-12-02T07:56:05.542Z,26.99
2023-12-02T07:56:50.652Z,26.99
2023-12-02T07:57:35.777Z,26.99
2023-12-02T07:58:20.648Z,26.99
2023-12-02T07:59:05.913Z,26.99
2023-12-02T07:59:50.553Z,26.99
2023-12-02T08:00:35.601Z,88.97
2023-12-02T08:01:20.572Z,136.95
2023-12-02T08:02:06.244Z,68.97
2023-12-02T08:02:50.872Z,70.97
2023-12-02T08:03:35.770Z,114.94
2023-12-02T08:04:20.792Z,406.49
2023-12-02T08:05:51.113Z,253.88
2023-12-02T08:06:35.859Z,258.85
2023-12-02T08:07:21.418Z,258.85
2023-12-02T08:08:06.470Z,258.85
2023-12-02T08:08:51.431Z,186.91
2023-12-02T08:09:36.361Z,186.91
2023-12-02T08:10:21.707Z,186.91
2023-12-02T08:11:06.527Z,186.91
2023-12-02T08:11:51.606Z,186.91
2023-12-02T08:12:37.119Z,186.91
2023-12-02T08:13:21.903Z,186.91
2023-12-02T08:14:06.994Z,186.91
2023-12-02T08:14:51.815Z,186.91
2023-12-02T08:15:36.776Z,186.91
2023-12-02T08:16:22.005Z,186.91
2023-12-02T08:17:07.271Z,186.91
2023-12-02T08:17:51.830Z,186.91
2023-12-02T08:18:36.811Z,186.91
2023-12-02T08:19:22.239Z,186.91
2023-12-02T08:20:07.540Z,186.91
2023-12-02T08:20:53.052Z,186.91
2023-12-02T08:21:37.096Z,186.91
2023-12-02T08:22:22.768Z,186.91
2023-12-02T08:23:07.059Z,186.91
2023-12-02T08:23:51.868Z,1001.73
2023-12-02T08:24:38.131Z,1001.73
2023-12-02T08:25:22.398Z,1001.73
2023-12-02T08:26:07.276Z,1001.73
2023-12-02T08:26:52.428Z,1001.73
2023-12-02T08:27:37.199Z,1001.73
2023-12-02T08:28:22.271Z,1001.73
2023-12-02T08:29:07.610Z,1001.73
2023-12-02T08:29:52.741Z,1001.73
2023-12-02T08:30:37.588Z,1057.61
2023-12-02T08:31:22.474Z,1066.88
2023-12-02T08:32:07.672Z,1032.85
2023-12-02T08:32:52.637Z,1015.19
2023-12-02T08:33:37.423Z,1006.16
2023-12-02T08:34:22.769Z,973.82
2023-12-02T08:35:07.649Z,958.80
2023-12-02T08:35:53.252Z,962.19
2023-12-02T08:36:38.030Z,941.75
2023-12-02T08:37:23.335Z,922.36
2023-12-02T08:38:08.028Z,943.43
2023-12-02T08:38:53.396Z,943.43
2023-12-02T08:39:38.072Z,770.51
2023-12-02T08:40:22.980Z,943.43
2023-12-02T08:41:09.890Z,780.03
2023-12-02T08:41:56.923Z,780.03
2023-12-02T08:42:38.620Z,780.03
2023-12-02T08:43:23.726Z,780.03
2023-12-02T08:44:13.986Z,780.03
2023-12-02T08:44:53.649Z,780.03
2023-12-02T08:45:40.012Z,784.11
2023-12-02T08:46:24.649Z,784.11
2023-12-02T08:47:08.939Z,784.11
2023-12-02T08:47:54.030Z,784.11
2023-12-02T08:48:40.342Z,784.11
2023-12-02T08:49:23.759Z,952.66
2023-12-02T08:50:09.079Z,965.59
2023-12-02T08:50:54.567Z,965.59
2023-12-02T08:51:41.081Z,965.59
2023-12-02T08:52:24.693Z,965.59
2023-12-02T08:53:09.225Z,965.59
2023-12-02T08:53:54.402Z,965.59
2023-12-02T08:54:40.401Z,965.59
2023-12-02T08:55:24.544Z,965.59
2023-12-02T08:56:10.304Z,965.59
2023-12-02T08:56:54.746Z,965.59
2023-12-02T08:57:39.476Z,965.59
2023-12-02T08:58:24.797Z,965.59
2023-12-02T08:59:09.919Z,965.59
2023-12-02T08:59:54.459Z,974.68
2023-12-02T09:00:39.463Z,951.78
2023-12-02T09:01:24.999Z,951.78
2023-12-02T09:02:10.105Z,951.78
2023-12-02T09:02:55.146Z,951.78
2023-12-02T09:03:40.166Z,951.78
2023-12-02T09:04:25.106Z,951.78
2023-12-02T09:05:10.179Z,951.78
2023-12-02T09:05:55.015Z,951.78
2023-12-02T09:06:41.771Z,951.78
2023-12-02T09:07:25.452Z,951.78
2023-12-02T09:08:10.689Z,951.78
2023-12-02T09:09:40.525Z,1084.54
2023-12-02T09:10:25.160Z,1019.43
2023-12-02T09:11:10.298Z,987.56
2023-12-02T09:11:56.099Z,982.42
2023-12-02T09:12:40.326Z,961.34
2023-12-02T09:13:26.059Z,961.34
2023-12-02T09:14:10.848Z,961.34
2023-12-02T09:14:55.723Z,961.34
2023-12-02T09:15:41.357Z,961.34
2023-12-02T09:16:25.721Z,961.34
2023-12-02T09:17:10.929Z,961.34
2023-12-02T09:17:56.548Z,961.34
2023-12-02T09:18:41.057Z,961.34
2023-12-02T09:19:28.291Z,961.34
2023-12-02T09:20:13.356Z,961.34
2023-12-02T09:20:56.447Z,961.34
2023-12-02T09:21:41.641Z,961.34
2023-12-02T09:22:26.332Z,961.34
2023-12-02T09:23:11.146Z,961.34